Terminal Aerodrome Forecast
Issued by NWS

Home | Current Version | Previous Version | Text Only | Print | Product List | Glossary Off
Versions: 1 2 3 4 5 6 7 8 9 10 11 12

000
FTUS42 KTBW 010530
TAFRSW
TAF
KRSW 010530Z 0106/0206 VRB03KT P6SM FEW250
     FM011400 VRB03KT P6SM SCT250
     FM011800 28010KT P6SM FEW050 SCT250
     FM020200 33003KT P6SM SCT250=

USA.gov is the U.S. government's official web portal to all federal, state and local government web resources and services.